Terminal Aerodrome Forecast
Issued by NWS

Current Version | Previous Version | Text Only | Print | Product List | Glossary On
Versions: 1 2 3 4 5 6 7 8 9 10
587
FTUS45 KVEF 260520
TAFVGT
TAF
KVGT 260520Z 2606/2706 09009KT P6SM SCT250
     FM261000 VRB06KT P6SM SCT250
     FM262100 21010G18KT P6SM BKN250
     FM270000 24011KT P6SM BKN250=

USA.gov is the U.S. government's official web portal to all federal, state and local government web resources and services.